Time;durP1;ratioP1;P1;durP2;ratioP2;P2;SDS_P1;SDS_P2;PMS_P1;PMS_P2;Temp;Humidity;BMP_temperature;BMP_pressure;BME280_temperature;BME280_humidity;BME280_pressure;Samples;Min_cycle;Max_cycle;Signal;HPM_P1;HPM_P2
2022/05/03 00:00:50;;;;;;;;;;;14.80;44.60;;;;;;2348638;54;20087;-73
2022/05/03 00:03:24;;;;;;;;;;;14.80;44.60;;;;;;2329400;55;20320;-73
2022/05/03 00:06:36;;;;;;;;;;;14.70;44.70;;;;;;2351056;54;20314;-73
2022/05/03 00:09:06;;;;;;;;;;;14.60;44.70;;;;;;2348545;53;20135;-73
2022/05/03 00:11:33;;;;;;;;;;;14.60;44.70;;;;;;2349369;54;20070;-73
2022/05/03 00:14:10;;;;;;;;;;;14.60;44.80;;;;;;2485084;52;20051;-73
2022/05/03 00:16:37;;;;;;;;;;;14.50;44.80;;;;;;2348584;54;20134;-73
2022/05/03 00:19:05;;;;;;;;;;;14.50;44.80;;;;;;2348801;54;20367;-73
2022/05/03 00:21:46;;;;;;;;;;;14.40;44.80;;;;;;2490049;52;20122;-73
2022/05/03 00:24:12;;;;;;;;;;;14.40;44.90;;;;;;2397988;53;20059;-73
2022/05/03 00:26:38;;;;;;;;;;;14.40;45.00;;;;;;2348886;54;20071;-73
2022/05/03 00:29:05;;;;;;;;;;;14.40;45.00;;;;;;2438533;52;20319;-72
2022/05/03 00:31:31;;;;;;;;;;;14.40;45.10;;;;;;2348563;54;20110;-73
2022/05/03 00:33:58;;;;;;;;;;;14.30;45.10;;;;;;2540829;52;20070;-73
2022/05/03 00:36:24;;;;;;;;;;;14.30;45.10;;;;;;2348998;54;20071;-73
2022/05/03 00:38:50;;;;;;;;;;;14.30;45.20;;;;;;2566119;52;20119;-73
2022/05/03 00:41:17;;;;;;;;;;;14.20;45.10;;;;;;2419202;52;20195;-73
2022/05/03 00:43:53;;;;;;;;;;;14.20;45.20;;;;;;2348631;54;20063;-73
2022/05/03 00:46:23;;;;;;;;;;;14.10;45.20;;;;;;2349193;54;20478;-73
2022/05/03 00:49:07;;;;;;;;;;;14.20;45.30;;;;;;2346083;54;20352;-73
2022/05/03 00:51:44;;;;;;;;;;;14.10;45.20;;;;;;2345067;53;20703;-73
2022/05/03 00:57:09;;;;;;;;;;;14.10;45.30;;;;;;2348226;54;20075;-73
2022/05/03 01:00:21;;;;;;;;;;;14.10;45.40;;;;;;2443022;52;20086;-73
2022/05/03 01:05:24;;;;;;;;;;;14.00;45.40;;;;;;2348055;54;20082;-73
2022/05/03 01:07:54;;;;;;;;;;;14.00;45.40;;;;;;2348694;54;20509;-73
2022/05/03 01:10:27;;;;;;;;;;;13.90;45.40;;;;;;2404117;52;20062;-73
2022/05/03 01:13:03;;;;;;;;;;;13.90;45.40;;;;;;2439255;52;20477;-73
2022/05/03 01:15:30;;;;;;;;;;;13.80;45.40;;;;;;2351514;54;20422;-73
2022/05/03 01:18:07;;;;;;;;;;;13.80;45.40;;;;;;2546130;52;20653;-73
2022/05/03 01:20:49;;;;;;;;;;;13.70;45.40;;;;;;2347997;54;20135;-73
2022/05/03 01:23:37;;;;;;;;;;;13.70;45.50;;;;;;2352558;54;20098;-73
2022/05/03 01:26:14;;;;;;;;;;;13.70;45.60;;;;;;2350433;53;20125;-73
2022/05/03 01:28:59;;;;;;;;;;;13.60;45.60;;;;;;2350772;53;20153;-73
2022/05/03 01:31:25;;;;;;;;;;;13.60;45.60;;;;;;2399915;52;20070;-73
2022/05/03 01:33:51;;;;;;;;;;;13.60;45.70;;;;;;2349065;54;20062;-73
2022/05/03 01:36:27;;;;;;;;;;;13.50;45.70;;;;;;2424889;52;20066;-73
2022/05/03 01:39:19;;;;;;;;;;;13.50;45.70;;;;;;2351765;53;20078;-73
2022/05/03 01:41:49;;;;;;;;;;;13.50;45.80;;;;;;2348735;54;20373;-73
2022/05/03 01:44:20;;;;;;;;;;;13.40;45.80;;;;;;2349064;54;20070;-73
2022/05/03 01:46:47;;;;;;;;;;;13.40;45.90;;;;;;2382563;53;20130;-73
2022/05/03 01:53:39;;;;;;;;;;;13.40;46.00;;;;;;2432840;52;20185;-73
2022/05/03 01:56:23;;;;;;;;;;;13.40;46.10;;;;;;2594607;52;20305;-73
2022/05/03 01:59:04;;;;;;;;;;;13.30;46.10;;;;;;2348448;54;20075;-73
2022/05/03 02:02:54;;;;;;;;;;;13.30;46.10;;;;;;2447008;52;20122;-73
2022/05/03 02:07:58;;;;;;;;;;;13.30;46.10;;;;;;2347764;54;20058;-73
2022/05/03 02:11:47;;;;;;;;;;;13.20;46.10;;;;;;2349379;54;20138;-73
2022/05/03 02:17:18;;;;;;;;;;;13.20;46.20;;;;;;2346436;54;20082;-73
2022/05/03 02:20:46;;;;;;;;;;;13.10;46.10;;;;;;2350253;53;20058;-72
2022/05/03 02:23:31;;;;;;;;;;;13.10;46.20;;;;;;2348699;53;20126;-73
2022/05/03 02:27:31;;;;;;;;;;;13.10;46.20;;;;;;2350640;53;20073;-73
2022/05/03 02:29:58;;;;;;;;;;;13.00;46.20;;;;;;2348754;54;20063;-73
2022/05/03 02:32:26;;;;;;;;;;;13.00;46.20;;;;;;2351263;53;20069;-72
2022/05/03 02:35:02;;;;;;;;;;;13.00;46.30;;;;;;2351838;53;20138;-73
2022/05/03 02:37:35;;;;;;;;;;;12.90;46.20;;;;;;2347847;53;20178;-73
2022/05/03 02:40:07;;;;;;;;;;;12.90;46.90;;;;;;2366285;52;20082;-72
2022/05/03 02:42:34;;;;;;;;;;;12.90;46.30;;;;;;2557957;52;20138;-73
2022/05/03 02:45:01;;;;;;;;;;;12.90;46.40;;;;;;2347840;54;20154;-73
2022/05/03 02:48:27;;;;;;;;;;;12.80;46.30;;;;;;2372976;53;20717;-72
2022/05/03 02:50:57;;;;;;;;;;;12.80;46.30;;;;;;2503191;52;20128;-73
2022/05/03 02:53:28;;;;;;;;;;;12.80;46.30;;;;;;2334218;53;20489;-73
2022/05/03 02:55:58;;;;;;;;;;;12.70;46.30;;;;;;2352792;53;20130;-73
2022/05/03 03:05:17;;;;;;;;;;;12.70;46.40;;;;;;2332262;53;20094;-73
2022/05/03 03:07:48;;;;;;;;;;;12.60;46.40;;;;;;2349015;54;20051;-73
2022/05/03 03:10:15;;;;;;;;;;;12.60;46.60;;;;;;2406808;52;20102;-73
2022/05/03 03:12:54;;;;;;;;;;;12.50;46.50;;;;;;2328622;54;20115;-72
2022/05/03 03:15:26;;;;;;;;;;;12.50;46.60;;;;;;2349559;54;20083;-72
2022/05/03 03:17:53;;;;;;;;;;;12.50;46.70;;;;;;2348805;54;20114;-73
2022/05/03 03:20:25;;;;;;;;;;;12.50;46.80;;;;;;2348716;54;20082;-72
2022/05/03 03:22:52;;;;;;;;;;;12.40;46.60;;;;;;2348662;54;20102;-72
2022/05/03 03:25:20;;;;;;;;;;;12.40;46.70;;;;;;2348894;54;20119;-73
2022/05/03 03:27:48;;;;;;;;;;;12.40;46.70;;;;;;2349234;54;20126;-73
2022/05/03 03:30:17;;;;;;;;;;;12.30;46.70;;;;;;2332758;52;20086;-73
2022/05/03 03:32:47;;;;;;;;;;;12.30;46.80;;;;;;2349784;54;20174;-73
2022/05/03 03:35:14;;;;;;;;;;;12.30;46.80;;;;;;2349475;53;20125;-73
2022/05/03 03:37:44;;;;;;;;;;;12.30;47.40;;;;;;2347537;53;20126;-72
2022/05/03 03:40:11;;;;;;;;;;;12.20;46.80;;;;;;2392403;52;20182;-73
2022/05/03 03:42:37;;;;;;;;;;;12.20;46.90;;;;;;2348323;54;20373;-73
2022/05/03 03:45:07;;;;;;;;;;;12.20;46.90;;;;;;2348698;54;20110;-73
2022/05/03 03:47:34;;;;;;;;;;;12.20;47.00;;;;;;2349034;54;20130;-73
2022/05/03 03:50:00;;;;;;;;;;;12.20;47.00;;;;;;2354251;53;20055;-73
2022/05/03 03:52:27;;;;;;;;;;;12.20;47.10;;;;;;2349162;54;20075;-73
2022/05/03 03:54:54;;;;;;;;;;;12.10;47.00;;;;;;2348458;54;20363;-73
2022/05/03 03:57:25;;;;;;;;;;;12.10;47.00;;;;;;2348409;54;20082;-73
2022/05/03 03:59:51;;;;;;;;;;;12.10;47.10;;;;;;2402343;52;20107;-73
2022/05/03 04:02:18;;;;;;;;;;;12.10;47.10;;;;;;2348789;54;20118;-73
2022/05/03 04:04:44;;;;;;;;;;;12.10;47.10;;;;;;2348528;54;20175;-73
2022/05/03 04:07:11;;;;;;;;;;;12.10;47.20;;;;;;2376739;53;20082;-73
2022/05/03 04:09:37;;;;;;;;;;;12.10;47.20;;;;;;2594850;52;20119;-73
2022/05/03 04:12:03;;;;;;;;;;;12.10;47.30;;;;;;2359124;53;20073;-73
2022/05/03 04:14:30;;;;;;;;;;;12.10;47.30;;;;;;2348334;53;20070;-73
2022/05/03 04:16:56;;;;;;;;;;;12.10;47.40;;;;;;2440826;52;20063;-73
2022/05/03 04:19:23;;;;;;;;;;;12.10;47.40;;;;;;2595507;52;20502;-73
2022/05/03 04:21:49;;;;;;;;;;;12.10;47.40;;;;;;2348828;54;20186;-73
2022/05/03 04:24:17;;;;;;;;;;;12.00;47.30;;;;;;2356068;53;20149;-73
2022/05/03 04:26:44;;;;;;;;;;;12.00;47.30;;;;;;2351852;53;20051;-73
2022/05/03 04:29:10;;;;;;;;;;;12.00;47.30;;;;;;2381617;52;20311;-73
2022/05/03 04:31:36;;;;;;;;;;;12.00;47.40;;;;;;2418743;52;20127;-73
2022/05/03 04:34:03;;;;;;;;;;;12.00;47.40;;;;;;2421047;52;20067;-73
2022/05/03 04:36:32;;;;;;;;;;;11.90;47.30;;;;;;2553035;52;20157;-73
2022/05/03 04:38:59;;;;;;;;;;;12.00;47.50;;;;;;2347422;53;20078;-73
2022/05/03 04:41:25;;;;;;;;;;;12.00;47.50;;;;;;2351645;53;20157;-73
2022/05/03 04:43:52;;;;;;;;;;;12.00;47.50;;;;;;2346856;53;20378;-73
2022/05/03 04:46:20;;;;;;;;;;;12.00;47.60;;;;;;2352489;53;20591;-73
2022/05/03 04:48:48;;;;;;;;;;;12.00;47.60;;;;;;2418089;52;20193;-73
2022/05/03 04:51:20;;;;;;;;;;;11.90;47.60;;;;;;2521658;52;20074;-73
2022/05/03 04:53:47;;;;;;;;;;;12.00;47.70;;;;;;2350308;54;20117;-72
2022/05/03 04:56:19;;;;;;;;;;;12.00;47.80;;;;;;2348271;54;20629;-73
2022/05/03 04:58:46;;;;;;;;;;;12.00;47.80;;;;;;2347809;54;20055;-73
2022/05/03 05:01:13;;;;;;;;;;;12.00;47.80;;;;;;2348208;54;20110;-73
2022/05/03 05:03:40;;;;;;;;;;;12.00;47.80;;;;;;2351458;53;20145;-73
2022/05/03 05:06:06;;;;;;;;;;;12.00;47.90;;;;;;2347278;53;20352;-73
2022/05/03 05:08:32;;;;;;;;;;;12.00;47.90;;;;;;2495149;52;20117;-73
2022/05/03 05:10:58;;;;;;;;;;;12.00;47.90;;;;;;2346768;53;20094;-73
2022/05/03 05:13:25;;;;;;;;;;;12.00;48.60;;;;;;2348536;54;20209;-73
2022/05/03 05:15:52;;;;;;;;;;;12.00;48.00;;;;;;2442980;52;20077;-73
2022/05/03 05:18:19;;;;;;;;;;;12.00;48.10;;;;;;2352017;53;20069;-73
2022/05/03 05:20:48;;;;;;;;;;;12.10;48.30;;;;;;2334954;53;20066;-73
2022/05/03 05:23:15;;;;;;;;;;;12.10;48.30;;;;;;2348659;54;20070;-73
2022/05/03 05:25:50;;;;;;;;;;;12.10;48.40;;;;;;2596342;52;20079;-73
2022/05/03 05:28:16;;;;;;;;;;;12.20;48.90;;;;;;2594795;52;20055;-73
2022/05/03 05:30:44;;;;;;;;;;;12.20;48.70;;;;;;2347583;54;20066;-73
2022/05/03 05:33:10;;;;;;;;;;;12.20;48.70;;;;;;2348526;54;20083;-73
2022/05/03 05:35:37;;;;;;;;;;;12.30;49.00;;;;;;2595486;52;20062;-73
2022/05/03 05:38:03;;;;;;;;;;;12.30;49.00;;;;;;2328357;54;20062;-73
2022/05/03 05:40:29;;;;;;;;;;;12.40;49.10;;;;;;2348149;54;20075;-73
2022/05/03 05:42:56;;;;;;;;;;;12.50;49.20;;;;;;2568197;52;20071;-73
2022/05/03 05:45:22;;;;;;;;;;;12.50;49.20;;;;;;2348481;54;20352;-73
2022/05/03 05:47:48;;;;;;;;;;;12.60;49.30;;;;;;2426582;52;20134;-73
2022/05/03 05:50:15;;;;;;;;;;;12.60;49.30;;;;;;2352364;54;20083;-73
2022/05/03 05:55:26;;;;;;;;;;;12.80;49.60;;;;;;2389655;52;20079;-73
2022/05/03 05:57:53;;;;;;;;;;;12.90;49.60;;;;;;2527618;52;20121;-73
2022/05/03 06:00:19;;;;;;;;;;;12.90;49.60;;;;;;2339144;53;20074;-73
2022/05/03 06:02:46;;;;;;;;;;;13.00;49.70;;;;;;2362101;53;20144;-73
2022/05/03 06:05:12;;;;;;;;;;;13.10;49.80;;;;;;2346310;54;20114;-73
2022/05/03 06:07:40;;;;;;;;;;;13.20;49.90;;;;;;2422740;52;20623;-73
2022/05/03 06:10:07;;;;;;;;;;;13.20;49.90;;;;;;2349421;53;20077;-73
2022/05/03 06:12:36;;;;;;;;;;;13.30;50.00;;;;;;2462925;52;20081;-73
2022/05/03 06:15:02;;;;;;;;;;;13.40;50.10;;;;;;2595025;52;20051;-73
2022/05/03 06:17:29;;;;;;;;;;;13.50;50.10;;;;;;2353381;54;20421;-73
2022/05/03 06:19:55;;;;;;;;;;;13.50;50.10;;;;;;2339958;53;20097;-73
2022/05/03 06:22:22;;;;;;;;;;;13.60;50.20;;;;;;2356766;53;20697;-73
2022/05/03 06:24:48;;;;;;;;;;;13.70;50.20;;;;;;2346627;53;20126;-73
2022/05/03 06:27:14;;;;;;;;;;;13.80;50.30;;;;;;2594754;52;20371;-74
2022/05/03 06:29:42;;;;;;;;;;;13.90;50.20;;;;;;2336349;53;20075;-73
2022/05/03 06:32:10;;;;;;;;;;;14.00;50.50;;;;;;2345281;54;20130;-73
2022/05/03 06:34:37;;;;;;;;;;;14.10;50.50;;;;;;2465289;52;20074;-73
2022/05/03 06:37:04;;;;;;;;;;;14.20;50.40;;;;;;2348937;54;20143;-73
2022/05/03 06:39:30;;;;;;;;;;;14.30;50.60;;;;;;2345776;53;20403;-73
2022/05/03 06:41:56;;;;;;;;;;;14.40;50.70;;;;;;2534240;52;20103;-73
2022/05/03 06:44:22;;;;;;;;;;;14.50;50.80;;;;;;2346126;54;20673;-70
2022/05/03 06:46:49;;;;;;;;;;;14.60;50.90;;;;;;2443460;52;20114;-75
2022/05/03 06:49:17;;;;;;;;;;;14.70;50.90;;;;;;2327384;55;20058;-76
2022/05/03 06:51:44;;;;;;;;;;;14.80;50.90;;;;;;2347756;53;20173;-75
2022/05/03 06:54:10;;;;;;;;;;;14.90;51.00;;;;;;2412816;52;20083;-73
2022/05/03 06:56:36;;;;;;;;;;;15.00;51.10;;;;;;2348886;53;20123;-74
2022/05/03 06:59:03;;;;;;;;;;;15.20;51.30;;;;;;2345563;54;20187;-74
2022/05/03 07:01:30;;;;;;;;;;;15.30;51.50;;;;;;2482361;52;20142;-73
2022/05/03 07:03:56;;;;;;;;;;;15.50;51.90;;;;;;2347288;54;20063;-73
2022/05/03 07:06:23;;;;;;;;;;;15.70;52.10;;;;;;2345097;53;20119;-74
2022/05/03 07:08:49;;;;;;;;;;;16.00;52.30;;;;;;2555134;52;20197;-74
2022/05/03 07:11:15;;;;;;;;;;;16.20;52.50;;;;;;2327694;53;20118;-76
2022/05/03 07:13:42;;;;;;;;;;;16.50;52.60;;;;;;2346706;54;20075;-75
2022/05/03 07:16:09;;;;;;;;;;;16.70;52.60;;;;;;2346147;54;20075;-74
2022/05/03 07:24:05;;;;;;;;;;;17.70;52.90;;;;;;2578725;52;20083;-74
2022/05/03 07:26:32;;;;;;;;;;;18.00;53.00;;;;;;2346686;54;20071;-74
2022/05/03 07:28:59;;;;;;;;;;;18.30;53.10;;;;;;2540413;52;20688;-74
2022/05/03 07:31:25;;;;;;;;;;;18.60;53.10;;;;;;2349717;53;20097;-78
2022/05/03 07:33:51;;;;;;;;;;;18.90;53.10;;;;;;2425351;52;20508;-74
2022/05/03 07:36:18;;;;;;;;;;;19.20;53.10;;;;;;2348123;53;20128;-74
2022/05/03 07:38:45;;;;;;;;;;;19.60;53.30;;;;;;2367416;52;20082;-74
2022/05/03 07:41:12;;;;;;;;;;;20.00;53.40;;;;;;2419819;52;20074;-78
2022/05/03 07:43:39;;;;;;;;;;;20.40;53.60;;;;;;2345777;53;20078;-72
2022/05/03 07:46:05;;;;;;;;;;;20.70;53.50;;;;;;2347315;54;20323;-73
2022/05/03 07:48:31;;;;;;;;;;;21.10;53.10;;;;;;2393434;53;20133;-72
2022/05/03 07:50:58;;;;;;;;;;;21.50;52.90;;;;;;2348611;54;20098;-73
2022/05/03 07:53:24;;;;;;;;;;;21.70;52.50;;;;;;2348513;53;20206;-78
2022/05/03 07:55:50;;;;;;;;;;;22.00;51.90;;;;;;2345739;53;20128;-75
2022/05/03 07:58:22;;;;;;;;;;;22.10;51.40;;;;;;2346713;54;20103;-75
2022/05/03 08:00:48;;;;;;;;;;;22.20;51.00;;;;;;2419074;52;20149;-75
2022/05/03 08:03:19;;;;;;;;;;;22.30;50.60;;;;;;2510181;52;20137;-73
2022/05/03 08:05:45;;;;;;;;;;;22.30;50.10;;;;;;2572837;52;20737;-76
2022/05/03 08:08:13;;;;;;;;;;;22.20;49.70;;;;;;2371015;53;20142;-75
2022/05/03 08:10:39;;;;;;;;;;;22.20;49.40;;;;;;2342975;53;20102;-74
2022/05/03 08:13:05;;;;;;;;;;;22.10;49.20;;;;;;2346419;53;20078;-75
2022/05/03 08:15:31;;;;;;;;;;;22.00;49.00;;;;;;2346173;54;20413;-75
2022/05/03 08:17:58;;;;;;;;;;;22.00;48.90;;;;;;2346746;54;20205;-73
2022/05/03 08:20:25;;;;;;;;;;;21.90;48.80;;;;;;2351650;53;20079;-76
2022/05/03 08:22:56;;;;;;;;;;;21.90;48.80;;;;;;2346913;54;20766;-77
2022/05/03 08:25:23;;;;;;;;;;;21.90;48.80;;;;;;2348886;53;20390;-78
2022/05/03 08:27:49;;;;;;;;;;;21.90;48.90;;;;;;2376269;53;20082;-77
2022/05/03 08:30:15;;;;;;;;;;;21.90;48.80;;;;;;2334637;53;20070;-75
2022/05/03 08:32:43;;;;;;;;;;;22.00;49.10;;;;;;2346276;54;20214;-75
2022/05/03 08:35:09;;;;;;;;;;;22.10;49.40;;;;;;2346181;54;20612;-75
2022/05/03 08:43:07;;;;;;;;;;;22.90;50.20;;;;;;2355356;53;20086;-75
2022/05/03 08:45:34;;;;;;;;;;;23.10;49.90;;;;;;2350693;53;20066;-75
2022/05/03 08:48:03;;;;;;;;;;;23.20;49.60;;;;;;2515485;52;20069;-73
2022/05/03 08:50:31;;;;;;;;;;;23.30;49.40;;;;;;2347991;53;20071;-75
2022/05/03 08:52:59;;;;;;;;;;;23.40;49.30;;;;;;2344063;53;20131;-77
2022/05/03 08:55:26;;;;;;;;;;;23.50;49.00;;;;;;2347056;54;20083;-75
2022/05/03 08:57:53;;;;;;;;;;;23.50;48.70;;;;;;2327051;55;20110;-75
2022/05/03 09:00:19;;;;;;;;;;;23.60;48.90;;;;;;2352126;53;20319;-76
2022/05/03 09:02:46;;;;;;;;;;;23.60;48.70;;;;;;2346865;54;20130;-75
2022/05/03 09:05:12;;;;;;;;;;;23.70;48.70;;;;;;2346349;54;20070;-75
2022/05/03 09:07:39;;;;;;;;;;;23.80;48.70;;;;;;2371025;52;20134;-77
2022/05/03 09:11:57;;;;;;;;;;;23.90;48.70;;;;;;2346412;54;20086;-75
2022/05/03 09:14:36;;;;;;;;;;;23.90;48.70;;;;;;2346991;54;20074;-75
2022/05/03 09:17:21;;;;;;;;;;;24.00;48.60;;;;;;2347327;54;20152;-75
2022/05/03 09:19:47;;;;;;;;;;;24.10;48.70;;;;;;2345501;54;20067;-75
2022/05/03 09:25:06;;;;;;;;;;;24.40;49.20;;;;;;2349560;53;20181;-75
2022/05/03 09:27:33;;;;;;;;;;;24.60;49.10;;;;;;2346387;53;20090;-77
2022/05/03 09:30:06;;;;;;;;;;;24.70;48.90;;;;;;2346394;53;20214;-76
2022/05/03 09:32:35;;;;;;;;;;;24.80;48.60;;;;;;2351331;53;20357;-76
2022/05/03 09:35:02;;;;;;;;;;;24.80;48.20;;;;;;2345162;53;20367;-75
2022/05/03 09:37:41;;;;;;;;;;;24.90;48.10;;;;;;2409632;52;20760;-75
2022/05/03 09:40:08;;;;;;;;;;;24.90;48.10;;;;;;2545889;52;20075;-75
2022/05/03 09:42:40;;;;;;;;;;;24.90;48.00;;;;;;2493996;52;20356;-75
2022/05/03 09:45:09;;;;;;;;;;;24.90;47.80;;;;;;2346509;54;20149;-79
2022/05/03 10:50:33;;;;;;;;;;;25.00;47.70;;;;;;2288413;55;20131;-73
2022/05/03 10:53:22;;;;;;;;;;;26.20;45.80;;;;;;2309867;55;20081;-77
2022/05/03 10:56:12;;;;;;;;;;;26.20;45.80;;;;;;2282284;55;20192;-75
2022/05/03 10:58:42;;;;;;;;;;;26.30;45.70;;;;;;2285727;55;20084;-74
2022/05/03 11:01:20;;;;;;;;;;;26.30;45.60;;;;;;2274840;55;20072;-78
2022/05/03 11:04:28;;;;;;;;;;;26.30;45.30;;;;;;2442180;54;20124;-77
2022/05/03 11:06:54;;;;;;;;;;;26.40;45.40;;;;;;2282406;55;20076;-76
2022/05/03 11:09:25;;;;;;;;;;;26.40;45.10;;;;;;2282698;55;20156;-76
2022/05/03 11:11:52;;;;;;;;;;;26.50;45.30;;;;;;2317108;54;20306;-79
2022/05/03 11:15:04;;;;;;;;;;;26.60;45.20;;;;;;2287133;55;20676;-77
2022/05/03 11:17:30;;;;;;;;;;;26.70;45.30;;;;;;2272619;55;20189;-76
2022/05/03 11:19:58;;;;;;;;;;;26.90;45.20;;;;;;2270787;55;20123;-76
2022/05/03 11:22:25;;;;;;;;;;;27.00;45.10;;;;;;2306013;55;20118;-76
2022/05/03 11:24:54;;;;;;;;;;;27.00;44.60;;;;;;2252516;56;20130;-78
2022/05/03 11:27:21;;;;;;;;;;;27.20;44.70;;;;;;2248378;56;20409;-79
2022/05/03 11:29:48;;;;;;;;;;;27.20;44.50;;;;;;2340916;55;20088;-76
2022/05/03 11:32:18;;;;;;;;;;;27.30;44.10;;;;;;2296496;55;20139;-78
2022/05/03 11:34:44;;;;;;;;;;;27.30;43.90;;;;;;2310538;54;20417;-79
2022/05/03 11:37:10;;;;;;;;;;;27.40;43.90;;;;;;2286717;55;20121;-76
2022/05/03 11:39:37;;;;;;;;;;;27.50;43.80;;;;;;2286715;55;20773;-76
2022/05/03 11:42:05;;;;;;;;;;;27.50;43.80;;;;;;2367249;54;20129;-75
2022/05/03 11:44:31;;;;;;;;;;;27.60;43.70;;;;;;2269593;55;20129;-75
2022/05/03 11:47:00;;;;;;;;;;;27.70;43.70;;;;;;2273067;56;20080;-75
2022/05/03 11:49:26;;;;;;;;;;;27.80;43.50;;;;;;2285249;56;20134;-78
2022/05/03 11:57:24;;;;;;;;;;;28.00;43.10;;;;;;2236140;56;20071;-74
2022/05/03 11:59:50;;;;;;;;;;;28.00;42.80;;;;;;2283391;56;20074;-77
2022/05/03 12:02:21;;;;;;;;;;;28.00;42.50;;;;;;2254632;55;20148;-77
2022/05/03 12:12:42;;;;;;;;;;;28.00;42.40;;;;;;2266503;55;20225;-76
2022/05/03 12:15:12;;;;;;;;;;;28.00;42.10;;;;;;2286886;55;20676;-77
2022/05/03 12:19:12;;;;;;;;;;;28.10;41.50;;;;;;2262790;55;20178;-78
2022/05/03 12:21:42;;;;;;;;;;;28.20;41.50;;;;;;2259941;56;20088;-75
2022/05/03 12:24:08;;;;;;;;;;;28.20;41.80;;;;;;2275609;55;20073;-77
2022/05/03 12:26:35;;;;;;;;;;;28.30;41.70;;;;;;2264794;55;20105;-74
2022/05/03 12:29:02;;;;;;;;;;;28.30;41.20;;;;;;2264270;56;20385;-74
2022/05/03 12:31:34;;;;;;;;;;;28.30;41.20;;;;;;2425298;55;20061;-76
2022/05/03 12:34:00;;;;;;;;;;;28.40;40.90;;;;;;2270876;55;20584;-75
2022/05/03 12:36:34;;;;;;;;;;;28.40;40.70;;;;;;2279903;55;20108;-76
2022/05/03 12:39:10;;;;;;;;;;;28.40;40.60;;;;;;2268192;55;20145;-75
2022/05/03 12:41:36;;;;;;;;;;;28.50;40.80;;;;;;2261890;55;20128;-75
2022/05/03 12:44:04;;;;;;;;;;;28.50;40.90;;;;;;2300651;55;20555;-74
2022/05/03 12:46:30;;;;;;;;;;;28.60;41.10;;;;;;2283137;55;20646;-77
2022/05/03 12:48:57;;;;;;;;;;;28.70;40.80;;;;;;2337714;55;20104;-76
2022/05/03 12:51:24;;;;;;;;;;;28.70;40.50;;;;;;2361652;55;20137;-76
2022/05/03 12:53:50;;;;;;;;;;;28.80;40.10;;;;;;2265381;55;20081;-75
2022/05/03 12:59:01;;;;;;;;;;;28.70;39.10;;;;;;2282197;55;20145;-75
2022/05/03 13:01:30;;;;;;;;;;;28.60;38.90;;;;;;2276225;55;20144;-74
2022/05/03 13:03:58;;;;;;;;;;;28.40;38.40;;;;;;2457306;55;20072;-76
2022/05/03 13:06:24;;;;;;;;;;;28.30;38.10;;;;;;2265436;55;20312;-74
2022/05/03 13:08:50;;;;;;;;;;;28.10;37.90;;;;;;2265583;55;20201;-78
2022/05/03 13:11:17;;;;;;;;;;;28.00;37.70;;;;;;2287936;55;20145;-76
2022/05/03 13:13:43;;;;;;;;;;;27.80;37.60;;;;;;2282195;55;20619;-77
2022/05/03 13:16:10;;;;;;;;;;;27.70;37.60;;;;;;2352644;54;20601;-75
2022/05/03 13:18:36;;;;;;;;;;;27.60;37.20;;;;;;2291818;55;20128;-78
2022/05/03 13:21:14;;;;;;;;;;;27.50;37.40;;;;;;2293972;55;20077;-76
2022/05/03 13:23:41;;;;;;;;;;;27.40;37.40;;;;;;2344545;55;20136;-76
2022/05/03 13:26:07;;;;;;;;;;;27.30;37.50;;;;;;2332963;55;20081;-76
2022/05/03 13:28:34;;;;;;;;;;;27.10;37.00;;;;;;2291877;55;20157;-77
2022/05/03 13:31:00;;;;;;;;;;;27.00;36.90;;;;;;2295317;55;20089;-78
2022/05/03 13:33:26;;;;;;;;;;;26.80;36.80;;;;;;2353696;55;20092;-76
2022/05/03 13:41:34;;;;;;;;;;;26.20;36.60;;;;;;2290941;55;20084;-76
2022/05/03 13:44:02;;;;;;;;;;;26.00;36.70;;;;;;2357901;54;20349;-77
2022/05/03 13:46:28;;;;;;;;;;;25.80;36.70;;;;;;2288614;55;20072;-74
2022/05/03 13:48:54;;;;;;;;;;;25.50;36.60;;;;;;2293212;55;20443;-78
2022/05/03 13:51:21;;;;;;;;;;;25.40;36.70;;;;;;2310016;55;20149;-75
2022/05/03 13:53:47;;;;;;;;;;;25.30;36.70;;;;;;2324933;55;20086;-75
2022/05/03 13:56:16;;;;;;;;;;;25.10;36.80;;;;;;2290261;55;20342;-75
2022/05/03 13:58:43;;;;;;;;;;;25.00;36.90;;;;;;2294104;55;20084;-77
2022/05/03 14:01:10;;;;;;;;;;;24.90;37.10;;;;;;2314458;55;20140;-75
2022/05/03 14:03:36;;;;;;;;;;;24.80;37.20;;;;;;2394438;55;20084;-76
2022/05/03 14:06:02;;;;;;;;;;;24.70;37.30;;;;;;2287122;55;20065;-77
2022/05/03 14:08:31;;;;;;;;;;;24.60;37.30;;;;;;2356329;55;20076;-75
2022/05/03 14:10:58;;;;;;;;;;;24.60;37.40;;;;;;2351668;55;20081;-77
2022/05/03 14:13:26;;;;;;;;;;;24.50;37.50;;;;;;2291670;55;20104;-75
2022/05/03 14:15:52;;;;;;;;;;;24.50;37.50;;;;;;2292959;55;20635;-75
2022/05/03 14:18:20;;;;;;;;;;;24.40;37.40;;;;;;2290115;55;20086;-75
2022/05/03 14:20:46;;;;;;;;;;;24.40;37.50;;;;;;2280635;55;20346;-76
2022/05/03 14:23:12;;;;;;;;;;;24.40;37.70;;;;;;2294852;55;20089;-75
2022/05/03 14:25:40;;;;;;;;;;;24.40;37.70;;;;;;2291362;55;20077;-75
2022/05/03 14:28:07;;;;;;;;;;;24.40;37.80;;;;;;2292031;55;20136;-74
2022/05/03 14:30:33;;;;;;;;;;;24.30;37.70;;;;;;2365587;55;20120;-76
2022/05/03 14:33:02;;;;;;;;;;;24.40;37.90;;;;;;2296419;55;20396;-74
2022/05/03 14:35:28;;;;;;;;;;;24.40;37.90;;;;;;2295905;55;20064;-74
2022/05/03 14:37:54;;;;;;;;;;;24.40;38.70;;;;;;2290569;55;20089;-75
2022/05/03 14:40:23;;;;;;;;;;;24.40;38.10;;;;;;2292159;55;20140;-75
2022/05/03 14:42:53;;;;;;;;;;;24.50;38.20;;;;;;2367437;55;20137;-75
2022/05/03 14:45:22;;;;;;;;;;;24.50;38.20;;;;;;2291831;55;20120;-77
2022/05/03 14:47:49;;;;;;;;;;;24.50;38.30;;;;;;2467194;55;20080;-75
2022/05/03 14:50:15;;;;;;;;;;;24.50;38.30;;;;;;2321135;55;20129;-75
2022/05/03 14:52:41;;;;;;;;;;;24.60;38.40;;;;;;2276970;55;20087;-76
2022/05/03 14:55:07;;;;;;;;;;;24.60;38.40;;;;;;2291257;55;20511;-75
2022/05/03 15:03:03;;;;;;;;;;;24.70;38.40;;;;;;2433578;54;20084;-74
2022/05/03 15:05:30;;;;;;;;;;;24.80;38.50;;;;;;2291297;55;20138;-74
2022/05/03 15:07:57;;;;;;;;;;;24.80;38.30;;;;;;2343298;54;20076;-74
2022/05/03 15:10:26;;;;;;;;;;;24.80;38.20;;;;;;2294523;55;20539;-74
2022/05/03 15:12:52;;;;;;;;;;;24.80;38.10;;;;;;2291340;55;20314;-75
2022/05/03 15:15:20;;;;;;;;;;;24.80;38.10;;;;;;2305820;55;20104;-75
2022/05/03 15:17:47;;;;;;;;;;;24.80;38.10;;;;;;2298592;55;20349;-75
2022/05/03 15:20:15;;;;;;;;;;;24.80;38.70;;;;;;2283450;55;20183;-75
2022/05/03 15:25:26;;;;;;;;;;;24.80;38.10;;;;;;2295783;55;20069;-74
2022/05/03 15:27:52;;;;;;;;;;;24.80;38.20;;;;;;2287584;55;20081;-75
2022/05/03 15:30:21;;;;;;;;;;;24.80;38.20;;;;;;2399143;54;20080;-74
2022/05/03 15:32:47;;;;;;;;;;;24.90;38.20;;;;;;2291747;55;20077;-75
2022/05/03 15:35:17;;;;;;;;;;;24.90;38.20;;;;;;2291606;55;20137;-75
2022/05/03 15:37:43;;;;;;;;;;;25.00;38.40;;;;;;2327871;55;20379;-75
2022/05/03 15:40:10;;;;;;;;;;;25.00;38.30;;;;;;2287148;55;20611;-75
2022/05/03 15:42:37;;;;;;;;;;;25.00;38.30;;;;;;2298667;55;20084;-76
2022/05/03 15:45:04;;;;;;;;;;;25.00;38.20;;;;;;2290084;55;20077;-75
2022/05/03 15:47:31;;;;;;;;;;;25.10;38.20;;;;;;2292386;55;20081;-75
2022/05/03 15:50:05;;;;;;;;;;;25.10;38.20;;;;;;2296072;55;20069;-75
2022/05/03 15:52:32;;;;;;;;;;;25.10;38.20;;;;;;2292834;55;20197;-75
2022/05/03 15:54:58;;;;;;;;;;;25.10;38.30;;;;;;2291989;55;20080;-76
2022/05/03 15:57:30;;;;;;;;;;;25.20;38.30;;;;;;2295176;55;20069;-76
2022/05/03 15:59:57;;;;;;;;;;;25.20;38.30;;;;;;2291771;55;20053;-75
2022/05/03 16:02:24;;;;;;;;;;;25.20;38.20;;;;;;2291518;55;20104;-74
2022/05/03 16:04:53;;;;;;;;;;;25.20;38.10;;;;;;2291479;55;20276;-74
2022/05/03 16:07:20;;;;;;;;;;;25.20;38.10;;;;;;2291390;55;20076;-73
2022/05/03 16:09:46;;;;;;;;;;;25.20;38.20;;;;;;2367871;55;20132;-74
2022/05/03 16:12:12;;;;;;;;;;;25.20;38.00;;;;;;2301491;55;20141;-75
2022/05/03 16:14:39;;;;;;;;;;;25.20;38.00;;;;;;2294709;55;20073;-76
2022/05/03 16:17:07;;;;;;;;;;;25.20;38.00;;;;;;2364127;55;20076;-76
2022/05/03 16:19:34;;;;;;;;;;;25.20;38.00;;;;;;2295553;55;20349;-74
2022/05/03 16:22:01;;;;;;;;;;;25.10;38.00;;;;;;2371357;54;20084;-76
2022/05/03 16:24:28;;;;;;;;;;;25.10;38.00;;;;;;2294517;55;20089;-75
2022/05/03 16:26:54;;;;;;;;;;;25.00;37.90;;;;;;2290564;55;20069;-77
2022/05/03 16:29:22;;;;;;;;;;;25.00;37.90;;;;;;2288779;55;20140;-75
2022/05/03 16:31:49;;;;;;;;;;;24.90;37.90;;;;;;2293835;55;20081;-74
2022/05/03 16:34:17;;;;;;;;;;;24.90;37.90;;;;;;2294436;55;20101;-75
2022/05/03 16:42:12;;;;;;;;;;;24.60;37.80;;;;;;2441706;55;20607;-75
2022/05/03 16:44:39;;;;;;;;;;;24.60;37.70;;;;;;2291584;55;20084;-76
2022/05/03 16:47:06;;;;;;;;;;;24.50;37.70;;;;;;2291044;55;20072;-75
2022/05/03 16:49:32;;;;;;;;;;;24.50;37.80;;;;;;2315326;55;20065;-75
2022/05/03 16:51:58;;;;;;;;;;;24.40;37.70;;;;;;2292099;55;20551;-75